Time;durP1;ratioP1;P1;durP2;ratioP2;P2;SDS_P1;SDS_P2;PMS_P1;PMS_P2;Temp;Humidity;BMP_temperature;BMP_pressure;BME280_temperature;BME280_humidity;BME280_pressure;Samples;Min_cycle;Max_cycle;Signal;HPM_P1;HPM_P2
2022/06/12 00:01:03;;;;;;;3.85;3.45;;;;;;;19.07;70.35;99043.66;4485755;31;20148;-72
2022/06/12 00:03:33;;;;;;;4.20;3.45;;;;;;;19.08;70.10;99042.66;4485448;31;20088;-72
2022/06/12 00:06:02;;;;;;;4.18;3.22;;;;;;;19.05;69.97;99041.19;4485635;31;20480;-72
2022/06/12 00:08:31;;;;;;;6.35;3.10;;;;;;;18.95;69.96;99038.00;4485513;31;20092;-73
2022/06/12 00:11:00;;;;;;;4.00;3.35;;;;;;;18.79;70.06;99031.84;4485803;32;20153;-72
2022/06/12 00:13:32;;;;;;;4.05;3.25;;;;;;;18.75;70.14;99035.03;4485230;31;20114;-72
2022/06/12 00:16:01;;;;;;;5.82;3.47;;;;;;;18.70;70.23;99032.09;4484542;32;20553;-72
2022/06/12 00:18:29;;;;;;;3.33;3.03;;;;;;;18.61;70.23;99029.53;4485829;31;20476;-72
2022/06/12 00:21:11;;;;;;;4.43;3.05;;;;;;;18.55;70.40;99032.13;4485652;31;20088;-73
2022/06/12 00:23:43;;;;;;;7.00;3.33;;;;;;;18.47;70.30;99017.13;4485524;31;20088;-72
2022/06/12 00:26:13;;;;;;;3.45;2.97;;;;;;;18.38;69.58;99020.81;4484440;32;20146;-72
2022/06/12 00:28:41;;;;;;;5.47;3.20;;;;;;;18.41;69.81;99020.47;4485670;31;20092;-72
2022/06/12 00:31:08;;;;;;;5.90;3.20;;;;;;;18.37;69.75;99011.25;4485438;31;20092;-72
2022/06/12 00:33:36;;;;;;;8.45;3.10;;;;;;;18.35;69.34;99013.25;4485404;31;20446;-73
2022/06/12 00:36:04;;;;;;;4.25;2.92;;;;;;;18.33;68.57;99009.94;4485563;31;20093;-72
2022/06/12 00:38:31;;;;;;;5.10;3.30;;;;;;;18.34;68.08;99012.41;4485406;31;20093;-72
2022/06/12 00:40:59;;;;;;;3.53;3.12;;;;;;;18.31;67.23;99010.13;4485528;31;20469;-72
2022/06/12 00:43:31;;;;;;;3.50;2.92;;;;;;;18.35;66.31;99010.59;4485319;31;20080;-72
2022/06/12 00:46:00;;;;;;;4.30;2.70;;;;;;;18.46;65.10;99004.84;4484498;31;20151;-72
2022/06/12 00:48:34;;;;;;;4.43;3.10;;;;;;;18.50;64.47;99003.47;4485374;31;20544;-72
2022/06/12 00:51:13;;;;;;;3.60;2.85;;;;;;;18.54;64.27;98998.62;4485818;31;20418;-72
2022/06/12 00:53:43;;;;;;;3.60;2.87;;;;;;;18.47;64.51;98995.03;4485292;32;20509;-72
2022/06/12 00:56:22;;;;;;;3.95;2.72;;;;;;;18.52;64.07;99003.31;4484268;32;20072;-72
2022/06/12 00:58:55;;;;;;;3.80;2.75;;;;;;;18.50;64.30;99010.59;4485434;32;20076;-72
2022/06/12 01:01:45;;;;;;;13.25;3.75;;;;;;;18.47;64.25;99009.16;4485374;31;20107;-72
2022/06/12 01:07:03;;;;;;;3.35;3.00;;;;;;;18.46;64.73;99009.34;4485495;31;20096;-72
2022/06/12 01:09:36;;;;;;;5.50;2.80;;;;;;;18.41;64.80;99013.34;4485127;31;20092;-72
2022/06/12 01:12:05;;;;;;;4.53;2.90;;;;;;;18.33;64.84;99004.66;4484023;32;20160;-72
2022/06/12 01:14:37;;;;;;;5.00;2.97;;;;;;;18.30;64.88;98995.22;4483806;32;20100;-72
2022/06/12 01:17:05;;;;;;;2.78;2.47;;;;;;;18.34;64.92;98996.50;4485305;32;20102;-72
2022/06/12 01:19:37;;;;;;;4.12;2.80;;;;;;;18.34;65.25;99001.81;4485474;31;20371;-72
2022/06/12 01:22:23;;;;;;;3.20;2.85;;;;;;;18.35;65.33;99002.63;4484369;32;20457;-72
2022/06/12 01:25:28;;;;;;;3.53;3.12;;;;;;;18.35;65.25;99002.63;4471078;32;20116;-72
2022/06/12 01:28:15;;;;;;;;;;;;;;;18.37;64.71;99003.28;4485531;31;20088;-72
2022/06/12 01:31:08;;;;;;;4.53;2.90;;;;;;;18.39;64.54;98999.44;4420529;32;20482;-72
2022/06/12 01:33:45;;;;;;;3.75;2.78;;;;;;;18.41;64.57;98989.47;4420787;32;20094;-72
2022/06/12 01:36:25;;;;;;;4.18;2.90;;;;;;;18.47;64.39;98990.59;4407789;32;20494;-72
2022/06/12 01:39:13;;;;;;;2.80;2.50;;;;;;;18.48;64.03;98989.56;4420656;32;20545;-72
2022/06/12 01:41:53;;;;;;;3.20;2.90;;;;;;;18.51;63.89;98986.53;4420310;32;20227;-72
2022/06/12 01:44:43;;;;;;;3.20;2.83;;;;;;;18.50;63.91;98992.88;4420422;32;20117;-72
2022/06/12 01:47:22;;;;;;;3.28;2.97;;;;;;;18.56;63.55;98991.28;4420567;32;20395;-72
2022/06/12 01:49:57;;;;;;;4.32;2.58;;;;;;;18.56;62.66;98994.78;4420520;32;20082;-72
2022/06/12 01:52:55;;;;;;;3.22;2.40;;;;;;;18.60;62.74;98993.41;4420687;32;20098;-72
2022/06/12 01:55:35;;;;;;;4.43;2.53;;;;;;;18.63;62.59;98986.91;4419787;32;20128;-72
2022/06/12 01:58:45;;;;;;;4.12;2.60;;;;;;;18.65;62.68;98989.38;4407780;32;20097;-72
2022/06/12 02:01:28;;;;;;;6.87;2.65;;;;;;;18.68;62.14;98989.81;4360026;32;20122;-72
2022/06/12 02:04:17;;;;;;;3.12;2.55;;;;;;;18.75;61.58;98992.56;4344350;32;112732;-72
2022/06/12 02:07:01;;;;;;;2.62;2.42;;;;;;;18.76;61.71;98986.28;4347351;32;20144;-72
2022/06/12 02:09:32;;;;;;;3.10;2.20;;;;;;;18.74;61.97;98985.63;4420037;32;20089;-72
2022/06/12 02:14:55;;;;;;;3.40;2.65;;;;;;;18.68;61.83;98986.34;4420035;32;20098;-72
2022/06/12 02:17:27;;;;;;;2.95;2.60;;;;;;;18.62;62.07;98983.44;4420247;32;20573;-72
2022/06/12 02:19:55;;;;;;;4.50;2.50;;;;;;;18.61;61.98;98986.28;4407540;32;20426;-72
2022/06/12 02:22:26;;;;;;;2.75;2.55;;;;;;;18.59;62.20;98983.81;4420195;32;20089;-72
2022/06/12 02:24:58;;;;;;;3.25;2.95;;;;;;;18.55;61.61;98985.19;4420022;32;20144;-72
2022/06/12 02:27:33;;;;;;;3.33;2.42;;;;;;;18.47;62.09;98985.28;4420074;32;20144;-72
2022/06/12 02:30:24;;;;;;;3.05;2.72;;;;;;;18.41;62.19;98985.97;4419857;32;20224;-72
2022/06/12 02:32:57;;;;;;;4.18;2.80;;;;;;;18.35;61.83;98984.91;4419886;32;20185;-72
2022/06/12 02:35:40;;;;;;;4.00;2.45;;;;;;;18.30;61.85;98987.25;4419731;32;20113;-72
2022/06/12 02:38:13;;;;;;;;;;;;;;;18.29;61.92;98993.59;4443629;32;20108;-72
2022/06/12 02:40:45;;;;;;;4.85;2.87;;;;;;;18.34;61.46;98990.38;4468576;32;20371;-72
2022/06/12 02:43:16;;;;;;;3.78;2.90;;;;;;;18.26;61.92;98997.41;4468265;32;20130;-72
2022/06/12 02:45:52;;;;;;;3.08;2.60;;;;;;;18.17;62.27;98989.72;4468582;32;20423;-72
2022/06/12 02:48:19;;;;;;;4.05;2.50;;;;;;;18.07;62.44;98996.09;4480181;32;20138;-72
2022/06/12 02:51:26;;;;;;;2.90;2.47;;;;;;;18.02;62.74;98997.66;4468389;32;20096;-72
2022/06/12 02:54:06;;;;;;;6.30;2.50;;;;;;;17.95;63.36;98996.72;4468210;32;20107;-72
2022/06/12 02:57:02;;;;;;;5.70;2.58;;;;;;;17.94;63.45;99003.88;4468291;32;20085;-72
2022/06/12 02:59:38;;;;;;;4.03;2.47;;;;;;;17.88;63.75;98999.22;4467019;32;20153;-72
2022/06/12 03:02:12;;;;;;;2.40;2.20;;;;;;;17.85;63.91;99003.06;4468261;32;20857;-72
2022/06/12 03:04:46;;;;;;;4.78;2.78;;;;;;;17.77;64.07;99005.75;4466912;32;20107;-72
2022/06/12 03:07:14;;;;;;;4.13;3.00;;;;;;;17.68;64.88;99006.84;4467146;32;20105;-72
2022/06/12 03:09:42;;;;;;;3.90;2.33;;;;;;;17.62;64.85;99012.84;4468843;32;20188;-72
2022/06/12 03:12:09;;;;;;;5.65;2.35;;;;;;;17.63;64.90;99015.31;4470204;32;20489;-72
2022/06/12 03:14:36;;;;;;;3.05;2.60;;;;;;;17.58;65.48;99011.53;4468859;32;20096;-72
2022/06/12 03:17:04;;;;;;;3.47;2.70;;;;;;;17.54;65.62;99011.88;4470317;32;20153;-72
2022/06/12 03:19:42;;;;;;;4.30;2.80;;;;;;;17.58;65.43;99011.53;4470278;32;20243;-72
2022/06/12 03:22:28;;;;;;;3.47;2.53;;;;;;;17.62;64.97;99012.84;4469121;32;20096;-72
2022/06/12 03:25:15;;;;;;;2.40;2.17;;;;;;;17.71;64.93;99017.91;4470360;32;20069;-72
2022/06/12 03:28:08;;;;;;;5.45;2.58;;;;;;;17.81;64.17;99017.66;4470250;32;20821;-72
2022/06/12 03:30:43;;;;;;;3.65;2.20;;;;;;;17.78;64.77;99018.03;4469234;32;20109;-72
2022/06/12 03:33:23;;;;;;;3.12;2.20;;;;;;;17.90;64.62;99016.63;4484759;32;20499;-72
2022/06/12 03:35:54;;;;;;;2.40;1.92;;;;;;;17.91;64.40;99020.09;4485887;31;20136;-72
2022/06/12 03:38:41;;;;;;;5.12;2.12;;;;;;;18.00;64.18;99018.19;4485007;32;20175;-73
2022/06/12 03:41:25;;;;;;;3.62;2.58;;;;;;;18.05;63.69;99026.47;4485858;31;20743;-72
2022/06/12 03:44:15;;;;;;;3.97;2.45;;;;;;;18.04;64.44;99027.47;4484245;32;20148;-72
2022/06/12 03:47:08;;;;;;;4.65;2.20;;;;;;;18.05;64.61;99021.16;4484495;32;20091;-72
2022/06/12 03:49:52;;;;;;;3.20;2.50;;;;;;;18.02;65.38;99024.97;4485922;31;20426;-72
2022/06/12 03:52:22;;;;;;;;;;;;;;;18.12;65.57;99021.25;4484868;32;20620;-72
2022/06/12 03:55:02;;;;;;;3.70;2.28;;;;;;;18.19;65.64;99028.31;4484771;32;19976;-72
2022/06/12 03:57:52;;;;;;;3.53;2.47;;;;;;;18.12;66.37;99018.59;4484455;32;20092;-72
2022/06/12 04:00:40;;;;;;;3.17;2.55;;;;;;;18.09;66.41;99027.72;4484672;32;20149;-72
2022/06/12 04:03:12;;;;;;;4.00;2.28;;;;;;;18.23;66.17;99026.13;4485749;31;20153;-72
2022/06/12 04:05:43;;;;;;;7.40;2.33;;;;;;;18.35;66.27;99029.16;4484191;32;20092;-72
2022/06/12 04:08:17;;;;;;;3.08;2.58;;;;;;;18.38;65.27;99028.78;4484463;32;20399;-72
2022/06/12 04:10:46;;;;;;;4.03;2.20;;;;;;;18.43;65.80;99026.44;4485850;31;20148;-72
2022/06/12 04:13:15;;;;;;;4.40;2.70;;;;;;;18.50;65.35;99026.50;4485353;32;20114;-72
2022/06/12 04:15:54;;;;;;;3.10;2.37;;;;;;;18.50;66.04;99022.06;4484357;32;20119;-72
2022/06/12 04:18:23;;;;;;;3.40;2.42;;;;;;;18.67;65.19;99022.69;4484372;32;20081;-72
2022/06/12 04:20:54;;;;;;;4.00;2.50;;;;;;;18.64;64.75;99025.72;4484183;32;20138;-72
2022/06/12 04:23:30;;;;;;;4.75;2.22;;;;;;;18.73;64.45;99026.44;4485595;32;20088;-72
2022/06/12 04:26:37;;;;;;;3.42;2.10;;;;;;;18.94;64.10;99028.38;4485539;31;20358;-72
2022/06/12 04:29:11;;;;;;;6.35;2.20;;;;;;;18.93;63.29;99032.03;4423545;32;20148;-72
2022/06/12 04:31:44;;;;;;;2.97;2.10;;;;;;;18.92;63.50;99025.91;4429304;32;20749;-72
2022/06/12 04:34:20;;;;;;;2.58;2.22;;;;;;;18.97;62.26;99028.84;4421012;32;20164;-73
2022/06/12 04:36:51;;;;;;;6.10;2.30;;;;;;;19.08;61.85;99032.03;4420923;32;20380;-72
2022/06/12 04:39:21;;;;;;;8.30;2.53;;;;;;;19.22;62.09;99031.16;4408114;32;20109;-72
2022/06/12 04:41:49;;;;;;;5.07;2.45;;;;;;;19.34;61.88;99042.13;4420807;32;20549;-72
2022/06/12 04:44:17;;;;;;;2.37;2.10;;;;;;;19.37;61.37;99036.44;4420642;32;20480;-72
2022/06/12 04:46:46;;;;;;;4.12;2.53;;;;;;;19.54;61.25;99041.53;4420805;32;20120;-72
2022/06/12 04:49:16;;;;;;;2.35;1.90;;;;;;;19.62;60.89;99041.41;4420673;32;20109;-72
2022/06/12 04:51:45;;;;;;;3.03;2.37;;;;;;;19.59;60.20;99037.31;4420845;32;20699;-72
2022/06/12 04:54:12;;;;;;;5.30;2.00;;;;;;;19.56;60.33;99036.84;4420795;32;20097;-72
2022/06/12 04:56:40;;;;;;;2.50;2.10;;;;;;;19.72;60.28;99030.47;4420804;32;20555;-73
2022/06/12 04:59:08;;;;;;;3.58;2.40;;;;;;;19.86;60.51;99042.91;4420641;32;20089;-72
2022/06/12 05:01:35;;;;;;;4.07;2.03;;;;;;;19.93;60.31;99038.47;4408153;32;20098;-72
2022/06/12 05:04:04;;;;;;;4.45;2.30;;;;;;;19.99;58.83;99040.34;4420753;32;20177;-72
2022/06/12 05:06:32;;;;;;;4.90;2.40;;;;;;;19.92;59.74;99039.47;4468249;32;20152;-72
2022/06/12 05:09:01;;;;;;;3.05;2.50;;;;;;;20.06;58.08;99044.91;4485161;31;20434;-73
2022/06/12 05:11:28;;;;;;;3.65;2.33;;;;;;;20.18;57.98;99040.69;4485172;31;20437;-73
2022/06/12 05:13:56;;;;;;;2.50;2.22;;;;;;;20.38;57.23;99040.87;4484988;31;20130;-73
2022/06/12 05:16:43;;;;;;;2.62;1.90;;;;;;;20.54;56.94;99034.41;4485273;31;20093;-73
2022/06/12 05:19:14;;;;;;;3.85;2.40;;;;;;;20.61;57.06;99029.16;4485220;31;20408;-73
2022/06/12 05:21:42;;;;;;;4.18;2.17;;;;;;;20.55;57.13;99036.06;4485133;31;20111;-72
2022/06/12 05:24:09;;;;;;;3.12;2.40;;;;;;;20.44;57.31;99039.25;4485221;31;20096;-72
2022/06/12 05:26:41;;;;;;;5.10;2.72;;;;;;;20.67;57.48;99033.72;4485480;32;20209;-73
2022/06/12 05:29:20;;;;;;;2.47;2.05;;;;;;;20.91;56.51;99037.75;4483997;32;20779;-73
2022/06/12 05:31:47;;;;;;;2.72;2.30;;;;;;;20.96;56.04;99048.59;4484252;31;20088;-73
2022/06/12 05:34:16;;;;;;;4.80;2.20;;;;;;;20.81;56.56;99054.06;4485092;31;20512;-73
2022/06/12 05:36:44;;;;;;;11.10;2.35;;;;;;;20.78;57.16;99056.31;4485006;31;20530;-73
2022/06/12 05:39:12;;;;;;;4.03;2.20;;;;;;;20.76;57.11;99053.84;4484747;32;20115;-73
2022/06/12 05:41:39;;;;;;;4.03;2.37;;;;;;;20.76;57.50;99067.16;4484902;31;20091;-73
2022/06/12 05:44:07;;;;;;;3.40;2.33;;;;;;;20.87;57.47;99060.44;4484585;31;20097;-73
2022/06/12 05:46:34;;;;;;;5.20;2.53;;;;;;;21.03;57.06;99052.12;4484962;31;20096;-73
2022/06/12 05:49:02;;;;;;;4.18;2.28;;;;;;;21.12;56.38;99059.94;4484834;31;20171;-73
2022/06/12 05:51:30;;;;;;;3.05;2.60;;;;;;;20.98;55.74;99057.22;4485156;31;20092;-73
2022/06/12 05:53:58;;;;;;;3.00;2.25;;;;;;;21.03;56.43;99065.44;4485008;31;20484;-72
2022/06/12 05:56:27;;;;;;;3.33;2.60;;;;;;;21.00;55.18;99063.19;4484981;31;20080;-72
2022/06/12 05:58:55;;;;;;;3.20;2.45;;;;;;;20.90;56.29;99068.03;4483520;32;20447;-73
2022/06/12 06:01:23;;;;;;;3.92;2.45;;;;;;;21.06;56.74;99059.72;4484850;31;20450;-73
2022/06/12 06:03:51;;;;;;;5.05;2.25;;;;;;;21.21;57.43;99067.59;4484749;32;20139;-73
2022/06/12 06:06:23;;;;;;;3.40;2.08;;;;;;;21.24;56.58;99077.00;4484399;31;20115;-73
2022/06/12 06:08:51;;;;;;;3.08;2.15;;;;;;;21.41;56.10;99072.97;4484623;31;20103;-73
2022/06/12 06:11:19;;;;;;;3.00;2.40;;;;;;;21.44;54.49;99083.25;4484521;31;20160;-73
2022/06/12 06:13:46;;;;;;;4.25;2.12;;;;;;;21.46;55.37;99083.03;4484252;31;20097;-73
2022/06/12 06:16:14;;;;;;;4.62;2.55;;;;;;;21.44;54.97;99080.56;4484706;31;20123;-73
2022/06/12 06:18:42;;;;;;;4.90;2.58;;;;;;;21.36;55.13;99078.09;4484471;31;20088;-73
2022/06/12 06:21:11;;;;;;;10.10;2.53;;;;;;;21.18;55.63;99083.97;4484502;31;20104;-72
2022/06/12 06:23:46;;;;;;;2.75;2.30;;;;;;;21.33;56.59;99080.31;4484558;31;20111;-73
2022/06/12 06:26:15;;;;;;;3.25;2.45;;;;;;;21.34;55.84;99089.97;4484427;32;20528;-73
2022/06/12 06:28:42;;;;;;;3.47;2.50;;;;;;;21.28;55.75;99081.72;4484361;31;20076;-73
2022/06/12 06:31:10;;;;;;;7.70;2.60;;;;;;;21.40;55.07;99081.19;4484231;32;20123;-73
2022/06/12 06:33:37;;;;;;;3.28;2.40;;;;;;;21.74;56.09;99085.63;4484467;31;20115;-73
2022/06/12 06:36:09;;;;;;;2.78;2.50;;;;;;;21.73;56.80;99081.28;4484172;31;20149;-73
2022/06/12 06:38:37;;;;;;;3.47;2.10;;;;;;;21.76;56.56;99083.56;4484278;31;20096;-73
2022/06/12 06:41:05;;;;;;;4.95;2.58;;;;;;;21.44;56.26;99083.25;4484179;31;20104;-73
2022/06/12 06:46:13;;;;;;;3.03;2.20;;;;;;;21.74;56.53;99080.28;4485805;31;20561;-73
2022/06/12 06:46:21;;;;;;;3.17;2.50;;;;;;;21.87;54.83;99076.81;4486499;31;20137;-73
2022/06/12 06:48:49;;;;;;;7.00;2.95;;;;;;;21.85;54.32;99080.69;4486306;31;20084;-73
2022/06/12 06:51:16;;;;;;;2.50;2.17;;;;;;;21.72;55.13;99084.97;4486320;31;20485;-73
2022/06/12 06:53:43;;;;;;;2.95;2.40;;;;;;;21.91;56.00;99085.25;4486427;31;20097;-73
2022/06/12 06:56:11;;;;;;;3.55;2.55;;;;;;;22.01;56.70;99093.66;4486557;31;20089;-73
2022/06/12 06:58:38;;;;;;;2.85;2.37;;;;;;;22.10;54.07;99087.09;4486229;31;20123;-73
2022/06/12 07:01:07;;;;;;;3.90;2.60;;;;;;;22.05;54.84;99084.22;4486305;32;20100;-73
2022/06/12 07:03:41;;;;;;;2.70;2.50;;;;;;;22.08;55.42;99088.34;4486354;31;20129;-73
2022/06/12 07:06:11;;;;;;;4.07;3.10;;;;;;;22.15;56.20;99089.16;4486170;32;20088;-73
2022/06/12 07:08:38;;;;;;;3.25;2.58;;;;;;;22.06;54.92;99090.38;4486202;31;20404;-73
2022/06/12 07:11:05;;;;;;;4.12;2.72;;;;;;;22.20;56.32;99092.03;4484916;32;20101;-73
2022/06/12 07:13:33;;;;;;;3.62;2.35;;;;;;;22.02;53.97;99091.81;4486261;31;20088;-73
2022/06/12 07:16:00;;;;;;;3.37;2.30;;;;;;;22.05;54.50;99094.87;4486252;31;20205;-73
2022/06/12 07:18:27;;;;;;;2.70;2.37;;;;;;;22.17;53.39;99099.63;4486155;31;20104;-73
2022/06/12 07:21:00;;;;;;;2.60;2.40;;;;;;;22.18;54.47;99098.59;4485957;31;20123;-73
2022/06/12 07:23:29;;;;;;;3.40;2.20;;;;;;;22.42;55.00;99095.34;4486163;31;20489;-73
2022/06/12 07:26:00;;;;;;;6.10;2.90;;;;;;;22.37;52.93;99103.16;4485996;32;20150;-73
2022/06/12 07:28:27;;;;;;;3.10;2.60;;;;;;;22.24;53.98;99097.75;4486127;31;20072;-73
2022/06/12 07:30:55;;;;;;;3.75;2.53;;;;;;;22.55;53.93;99096.38;4485873;31;20104;-73
2022/06/12 07:33:23;;;;;;;4.82;2.60;;;;;;;22.64;54.60;99092.44;4486339;31;20521;-73
2022/06/12 07:35:50;;;;;;;4.03;2.33;;;;;;;22.77;54.10;99087.09;4485667;31;20115;-73
2022/06/12 07:38:22;;;;;;;4.00;2.50;;;;;;;22.79;54.31;99086.87;4484666;32;20473;-73
2022/06/12 07:40:57;;;;;;;2.33;2.12;;;;;;;22.80;51.96;99081.34;4484609;32;20153;-73
2022/06/12 07:43:27;;;;;;;3.17;2.30;;;;;;;22.80;54.07;99091.19;4484367;32;20104;-73
2022/06/12 07:45:55;;;;;;;3.05;2.40;;;;;;;22.96;53.23;99084.56;4485817;31;20100;-73
2022/06/12 07:48:24;;;;;;;2.42;2.08;;;;;;;23.10;54.44;99086.19;4485906;31;20162;-73
2022/06/12 07:50:53;;;;;;;3.53;2.37;;;;;;;23.17;51.40;99087.00;4485596;31;20435;-73
2022/06/12 07:53:21;;;;;;;3.37;2.60;;;;;;;23.36;53.57;99085.28;4485532;31;20108;-73
2022/06/12 07:55:50;;;;;;;3.55;2.50;;;;;;;23.23;53.15;99080.00;4485547;31;20489;-73
2022/06/12 07:58:19;;;;;;;3.90;2.62;;;;;;;23.11;53.51;99085.16;4485821;31;20093;-73
2022/06/12 08:00:58;;;;;;;6.00;2.97;;;;;;;23.17;54.03;99094.19;4485780;31;20080;-73
2022/06/12 08:03:27;;;;;;;3.42;2.37;;;;;;;23.02;53.16;99089.06;4485885;31;20112;-73
2022/06/12 08:05:55;;;;;;;5.30;2.60;;;;;;;23.18;52.62;99083.31;4485271;31;20145;-73
2022/06/12 08:08:22;;;;;;;3.47;2.60;;;;;;;23.35;54.96;99082.81;4485679;31;20092;-73
2022/06/12 08:10:50;;;;;;;2.53;2.33;;;;;;;23.25;53.92;99082.44;4485629;32;20443;-73
2022/06/12 08:13:18;;;;;;;4.00;2.87;;;;;;;23.30;53.17;99080.78;4485292;31;20110;-73
2022/06/12 08:15:48;;;;;;;3.47;2.92;;;;;;;23.38;56.06;99082.41;4485601;31;20130;-73
2022/06/12 08:18:16;;;;;;;3.10;2.62;;;;;;;23.48;53.60;99081.94;4485740;32;20118;-73
2022/06/12 08:20:47;;;;;;;4.12;2.40;;;;;;;23.49;52.10;99071.00;4485500;31;20146;-73
2022/06/12 08:23:36;;;;;;;3.70;2.62;;;;;;;23.57;52.10;99080.63;4485528;31;20127;-73
2022/06/12 08:26:06;;;;;;;5.12;2.75;;;;;;;23.67;52.14;99066.81;4485574;31;20094;-73
2022/06/12 08:28:40;;;;;;;3.62;2.40;;;;;;;23.70;51.77;99075.22;4485509;32;20141;-73
2022/06/12 08:31:10;;;;;;;3.75;2.83;;;;;;;23.80;53.01;99074.75;4484096;32;20096;-73
2022/06/12 08:33:39;;;;;;;4.62;2.50;;;;;;;23.92;52.00;99066.88;4485553;31;20089;-73
2022/06/12 08:36:10;;;;;;;3.00;2.60;;;;;;;23.89;52.07;99062.78;4484091;32;20100;-73
2022/06/12 08:38:38;;;;;;;4.03;2.75;;;;;;;24.04;52.52;99065.16;4484380;32;20080;-73
2022/06/12 08:41:09;;;;;;;3.67;2.58;;;;;;;23.85;51.41;99064.25;4485395;31;20096;-73
2022/06/12 08:43:47;;;;;;;2.83;2.25;;;;;;;23.95;53.43;99069.09;4483902;32;20112;-73
2022/06/12 08:46:21;;;;;;;4.50;2.40;;;;;;;24.15;51.90;99066.31;4484219;32;20540;-73
2022/06/12 08:48:56;;;;;;;3.47;2.42;;;;;;;24.03;51.18;99073.41;4484562;32;20114;-73
2022/06/12 08:51:40;;;;;;;3.22;2.53;;;;;;;24.18;50.43;99073.91;4484083;32;20594;-73
2022/06/12 08:54:15;;;;;;;5.10;2.72;;;;;;;24.12;51.28;99072.09;4485599;31;20144;-73
2022/06/12 08:56:48;;;;;;;5.40;2.22;;;;;;;24.10;50.74;99079.50;4485423;31;20076;-73
2022/06/12 08:59:25;;;;;;;2.42;2.20;;;;;;;24.27;50.89;99069.91;4485432;31;20110;-73
2022/06/12 09:01:53;;;;;;;8.68;2.45;;;;;;;24.34;48.78;99077.88;4484178;32;20100;-73
2022/06/12 09:04:23;;;;;;;2.78;2.47;;;;;;;24.37;48.58;99073.94;4484141;32;20104;-73
2022/06/12 09:06:57;;;;;;;3.47;2.55;;;;;;;24.32;49.92;99069.25;4482726;32;20140;-73
2022/06/12 09:09:29;;;;;;;3.45;2.62;;;;;;;24.48;49.39;99073.22;4485369;31;20076;-73
2022/06/12 09:12:26;;;;;;;3.28;2.80;;;;;;;24.45;47.78;99066.47;4485103;31;20457;-73
2022/06/12 09:15:19;;;;;;;4.62;2.05;;;;;;;24.51;48.01;99067.44;4484142;32;20583;-73
2022/06/12 09:18:48;;;;;;;4.62;2.92;;;;;;;24.86;47.35;99071.44;4521594;31;197824;-72
2022/06/12 09:21:25;;;;;;;4.82;2.90;;;;;;;24.86;47.35;99071.44;4512723;31;20452;-73
2022/06/12 09:24:35;;;;;;;4.25;2.92;;;;;;;24.09;48.26;99073.34;4511711;31;20155;-72
2022/06/12 09:27:13;;;;;;;4.47;2.85;;;;;;;24.44;50.48;99072.03;4513107;31;20096;-73
2022/06/12 09:29:52;;;;;;;3.25;2.53;;;;;;;24.47;50.41;99063.56;4513006;31;20093;-72
2022/06/12 09:32:28;;;;;;;2.58;2.33;;;;;;;24.45;48.32;99066.47;4500013;31;20097;-72
2022/06/12 09:35:28;;;;;;;2.70;2.45;;;;;;;24.59;48.18;99069.03;4495915;31;20084;-72
2022/06/12 09:40:52;;;;;;;5.25;2.85;;;;;;;24.69;48.20;99069.31;4497005;31;20167;-72
2022/06/12 09:43:38;;;;;;;4.35;2.80;;;;;;;24.73;48.03;99061.69;4496565;31;20124;-73
2022/06/12 09:46:05;;;;;;;5.50;2.40;;;;;;;24.92;48.10;99055.28;4496827;32;20135;-72
2022/06/12 09:48:39;;;;;;;3.22;2.45;;;;;;;25.04;48.09;99059.88;4496839;31;20112;-72
2022/06/12 09:51:32;;;;;;;4.18;3.20;;;;;;;24.91;45.05;99053.63;4496910;31;20088;-73
2022/06/12 09:54:21;;;;;;;4.03;2.63;;;;;;;25.01;49.11;99052.28;4496992;31;20640;-72
2022/06/12 09:56:54;;;;;;;4.40;2.97;;;;;;;25.27;48.53;99045.78;4496800;31;20076;-72
2022/06/12 09:59:31;;;;;;;3.97;2.80;;;;;;;25.26;46.23;99039.59;4495617;31;20084;-73
2022/06/12 10:02:02;;;;;;;5.57;2.47;;;;;;;25.31;46.81;99037.12;4496860;31;20087;-73
2022/06/12 10:04:40;;;;;;;3.25;2.95;;;;;;;25.42;47.82;99034.69;4495703;31;20091;-72
2022/06/12 10:07:11;;;;;;;2.60;2.35;;;;;;;25.58;46.50;99027.88;4496967;31;20088;-73
2022/06/12 10:09:44;;;;;;;3.58;3.00;;;;;;;25.62;47.56;99026.37;4496754;31;20080;-73
2022/06/12 10:12:19;;;;;;;4.30;3.10;;;;;;;25.62;47.12;99023.69;4496596;31;20092;-73
2022/06/12 10:14:50;;;;;;;4.07;3.00;;;;;;;25.57;47.00;99018.16;4495256;31;20122;-73
2022/06/12 10:17:26;;;;;;;6.47;2.58;;;;;;;25.53;48.00;99028.56;4495245;32;20127;-73
2022/06/12 10:19:58;;;;;;;3.60;2.80;;;;;;;25.40;46.36;99036.78;4495412;32;20295;-73
2022/06/12 10:22:38;;;;;;;4.35;2.70;;;;;;;25.61;45.04;99027.41;4495459;32;20118;-73
2022/06/12 10:25:08;;;;;;;3.12;2.80;;;;;;;25.80;46.39;99028.13;4495845;32;20109;-73
2022/06/12 10:27:52;;;;;;;4.90;2.80;;;;;;;26.18;44.91;99017.03;4496200;31;20091;-72
2022/06/12 10:30:24;;;;;;;3.67;2.83;;;;;;;25.84;46.73;99018.59;4486164;31;20076;-73
2022/06/12 10:32:54;;;;;;;4.43;2.65;;;;;;;25.90;46.86;99014.16;4501383;31;20501;-72
2022/06/12 10:35:25;;;;;;;3.00;2.70;;;;;;;26.05;44.73;99019.13;4501928;31;20641;-73
2022/06/12 10:38:03;;;;;;;3.80;2.70;;;;;;;26.17;48.06;99012.69;4501739;31;20088;-73
2022/06/12 10:40:31;;;;;;;2.92;2.53;;;;;;;26.15;46.30;99011.31;4501868;31;20127;-72
2022/06/12 10:43:03;;;;;;;2.70;2.50;;;;;;;26.30;46.26;99011.66;4501584;31;20159;-73
2022/06/12 10:45:34;;;;;;;3.20;2.78;;;;;;;26.18;44.85;99019.72;4501786;31;20529;-73
2022/06/12 10:48:20;;;;;;;3.58;2.70;;;;;;;26.06;45.91;99012.69;4501732;31;20114;-73
2022/06/12 10:50:54;;;;;;;5.12;2.72;;;;;;;26.22;45.61;99009.31;4501909;31;20129;-73
2022/06/12 10:53:26;;;;;;;12.10;3.08;;;;;;;26.64;45.27;99006.47;4501788;31;20111;-72
2022/06/12 10:56:02;;;;;;;4.62;2.42;;;;;;;26.39;44.21;99009.44;4501946;31;20111;-73
2022/06/12 10:59:03;;;;;;;3.22;2.67;;;;;;;26.23;43.82;99013.62;4501704;31;20103;-73
2022/06/12 11:01:40;;;;;;;3.12;2.80;;;;;;;26.19;44.62;99001.72;4501786;31;20111;-73
2022/06/12 11:04:26;;;;;;;8.40;2.85;;;;;;;26.39;43.48;98999.50;4501811;31;20115;-73
2022/06/12 11:07:08;;;;;;;3.12;2.72;;;;;;;26.57;45.48;99003.09;4501966;31;20114;-73
2022/06/12 11:09:54;;;;;;;3.90;2.87;;;;;;;26.38;45.08;98994.37;4500312;31;20107;-73
2022/06/12 11:12:30;;;;;;;3.15;2.60;;;;;;;26.47;44.10;99005.56;4501462;31;20084;-73
2022/06/12 11:15:28;;;;;;;4.53;2.83;;;;;;;26.55;43.66;98992.56;4501467;31;20915;-73
2022/06/12 11:18:02;;;;;;;4.18;2.70;;;;;;;26.33;45.07;99002.28;4501245;31;20724;-73
2022/06/12 11:20:48;;;;;;;4.53;2.90;;;;;;;26.61;42.17;98996.19;4501657;31;20550;-73
2022/06/12 11:23:21;;;;;;;3.58;2.85;;;;;;;26.81;44.75;98995.03;4500187;31;20441;-73
2022/06/12 11:26:43;;;;;;;3.50;2.72;;;;;;;26.64;43.33;99001.09;4501497;31;20107;-73
2022/06/12 11:29:52;;;;;;;5.47;2.60;;;;;;;26.75;44.88;98999.47;4500157;31;20175;-73
2022/06/12 11:32:43;;;;;;;4.68;2.78;;;;;;;26.75;43.23;98996.78;4501291;31;20118;-73
2022/06/12 11:35:28;;;;;;;4.35;2.72;;;;;;;26.91;42.54;98989.84;4500207;31;20169;-73
2022/06/12 11:38:15;;;;;;;4.00;3.00;;;;;;;27.55;44.05;98991.59;4501298;31;20096;-73
2022/06/12 11:41:16;;;;;;;2.97;2.10;;;;;;;27.44;41.16;98977.94;4500420;31;20114;-73
2022/06/12 11:44:10;;;;;;;5.78;2.95;;;;;;;27.40;44.10;98984.91;4500740;31;20559;-73
2022/06/12 11:46:56;;;;;;;4.07;2.85;;;;;;;27.24;42.89;98989.13;4501406;31;20517;-73
2022/06/12 11:49:45;;;;;;;4.60;2.80;;;;;;;26.90;42.29;98983.66;4501364;31;20145;-73
2022/06/12 11:52:28;;;;;;;3.97;2.75;;;;;;;27.32;42.41;98969.12;4501297;31;20092;-73
2022/06/12 11:55:04;;;;;;;3.20;2.90;;;;;;;27.93;40.68;98974.72;4501178;31;20445;-73
2022/06/12 11:57:53;;;;;;;4.03;2.97;;;;;;;27.82;42.60;98982.88;4501084;31;20102;-73
2022/06/12 12:00:36;;;;;;;2.50;2.30;;;;;;;27.27;42.14;98979.78;4500141;31;20133;-73
2022/06/12 12:03:32;;;;;;;3.72;2.60;;;;;;;27.60;42.17;98967.44;4501231;31;20113;-73
2022/06/12 12:06:02;;;;;;;7.78;2.90;;;;;;;27.39;41.84;98971.66;4499881;31;20145;-73
2022/06/12 12:09:20;;;;;;;3.10;2.60;;;;;;;27.40;45.04;98965.22;4501068;31;20155;-73
2022/06/12 12:11:50;;;;;;;7.15;3.00;;;;;;;27.07;42.49;98964.91;4451561;32;20093;-72
2022/06/12 12:14:24;;;;;;;4.22;2.75;;;;;;;27.02;43.74;98963.97;4451267;32;20127;-73
2022/06/12 12:16:55;;;;;;;3.67;2.87;;;;;;;27.22;43.97;98960.84;4438620;32;20127;-73
2022/06/12 12:19:26;;;;;;;4.25;2.75;;;;;;;27.51;42.50;98956.28;4451511;32;20115;-73
2022/06/12 12:21:59;;;;;;;4.15;2.58;;;;;;;27.45;42.76;98954.56;4451450;32;20204;-72